アデレード の空港の天気 - METARとTAF

アデレード空港 ( YPAD / ADL ) - オーストラリア 南オーストラリア州アデレード
飛行場実況気象(Metar)
観測時間04/26 20:30 ACST (04/26 11:00 UTC)
風向・風速南東 3m/s
視程10km以上
天気現象
少しの雲 雲底高度 1070m
気温15℃
湿度67%
気圧1024hPa
METARYPAD 261100Z 13005KT 9999 FEW035 15/09 Q1024 NOSIG
過去の天気等 Google飛行場航空写真 Wunderground天気予報

過去48時間のMETAR

飛行場予報(TAF)
発表時間: 4/26 14:44 ACST (4/26 05:14 UTC)
予報対象時間: 26日15時 ACST ~ 27日21時 ACST
風向・風速南西 6m/s
視程10km以上
少しの雲 雲底高度 1,070m
26日17時 ACST から
風向・風速南東 5m/s
視程10km以上
少しの雲 雲底高度 1,070m
27日0時 ACST から
風向・風速東 4m/s
視程10km以上
なし
27日8時 ACST から
風向・風速不定 3m/s
視程10km以上
なし
27日13時 ACST から
風向・風速南南西 5m/s
視程10km以上
なし
27日18時 ACST から
風向・風速東南東 4m/s
視程10km以上
なし
TAF YPAD 260514Z 2606/2712 23012KT 9999 FEW035
FM260800 14010KT 9999 FEW035
FM261500 09008KT CAVOK
FM262300 VRB05KT CAVOK
FM270400 21010KT CAVOK
FM270900 12008KT CAVOK